JAF248 ELLX-LKPR
Flight info
| Callsign | JAF248 |
|---|---|
| Flight time | N/A |
| Altitude | 31000 |
| Route | ASMOX Y891 ROPUV L607 UBIDU L984 SULUS DCT TONSU Z35 ODOMO DCT LOMKI |
| Aircraft | B738/M-SDE2E3FGHIRWXY/LB1 |
Departure
| Time | 2026-05-06 17:55 |
|---|---|
| Airport | Luxembourg-Findel International Airport (ELLX) |
Arrival
| Time | N/A |
|---|---|
| Airport | Václav Havel Airport Prague (LKPR) |
| Time | Latitude | Longitude | Altitude | Speed | Heading |
|---|---|---|---|---|---|
| 2026-05-06 17:20 | 49.63365 | 6.21744 | 1242 ft | 0 kts | 330° |
| 2026-05-06 17:26 | 49.63366 | 6.21744 | 1242 ft | 0 kts | 330° |
| 2026-05-06 17:27 | 49.63366 | 6.21743 | 1242 ft | 0 kts | 330° |
| 2026-05-06 17:27 | 49.63367 | 6.21743 | 1242 ft | 0 kts | 330° |
| 2026-05-06 17:29 | 49.63368 | 6.21742 | 1242 ft | 0 kts | 330° |
| 2026-05-06 17:31 | 49.63369 | 6.21742 | 1242 ft | 0 kts | 330° |
| 2026-05-06 17:31 | 49.63369 | 6.21741 | 1242 ft | 0 kts | 330° |
| 2026-05-06 17:34 | 49.63370 | 6.21741 | 1242 ft | 0 kts | 330° |
| 2026-05-06 17:36 | 49.63370 | 6.21740 | 1242 ft | 0 kts | 330° |
| 2026-05-06 17:37 | 49.63371 | 6.21740 | 1242 ft | 0 kts | 330° |
| 2026-05-06 17:39 | 49.63371 | 6.21739 | 1242 ft | 0 kts | 330° |
| 2026-05-06 17:41 | 49.63372 | 6.21739 | 1242 ft | 0 kts | 330° |
| 2026-05-06 17:43 | 49.63372 | 6.21738 | 1242 ft | 0 kts | 330° |
| 2026-05-06 17:44 | 49.63373 | 6.21738 | 1242 ft | 0 kts | 330° |
| 2026-05-06 17:46 | 49.63373 | 6.21737 | 1242 ft | 0 kts | 330° |
| 2026-05-06 17:47 | 49.63374 | 6.21737 | 1242 ft | 0 kts | 330° |
| 2026-05-06 17:47 | 49.63361 | 6.21748 | 1242 ft | 2 kts | 330° |
| 2026-05-06 17:48 | 49.63347 | 6.21760 | 1242 ft | 2 kts | 330° |
| 2026-05-06 17:48 | 49.63334 | 6.21772 | 1242 ft | 2 kts | 321° |
| 2026-05-06 17:48 | 49.63326 | 6.21792 | 1242 ft | 2 kts | 257° |
| 2026-05-06 17:48 | 49.63330 | 6.21802 | 1242 ft | 1 kts | 227° |
| 2026-05-06 17:49 | 49.63331 | 6.21802 | 1242 ft | 0 kts | 227° |
| 2026-05-06 17:49 | 49.63330 | 6.21802 | 1242 ft | 0 kts | 227° |
| 2026-05-06 17:49 | 49.63330 | 6.21801 | 1242 ft | 0 kts | 232° |
| 2026-05-06 17:50 | 49.63330 | 6.21800 | 1242 ft | 0 kts | 232° |
| 2026-05-06 17:50 | 49.63302 | 6.21784 | 1242 ft | 7 kts | 168° |
| 2026-05-06 17:50 | 49.63275 | 6.21808 | 1242 ft | 5 kts | 145° |
| 2026-05-06 17:51 | 49.63214 | 6.21865 | 1242 ft | 13 kts | 149° |
| 2026-05-06 17:51 | 49.63176 | 6.21951 | 1242 ft | 9 kts | 78° |
| 2026-05-06 17:51 | 49.63200 | 6.22040 | 1242 ft | 13 kts | 64° |
| 2026-05-06 17:51 | 49.63252 | 6.22207 | 1242 ft | 21 kts | 63° |
| 2026-05-06 17:52 | 49.63326 | 6.22450 | 1242 ft | 28 kts | 75° |
| 2026-05-06 17:52 | 49.63425 | 6.22718 | 1242 ft | 24 kts | 59° |
| 2026-05-06 17:52 | 49.63495 | 6.22903 | 1242 ft | 15 kts | 61° |
| 2026-05-06 17:52 | 49.63537 | 6.23018 | 1242 ft | 9 kts | 60° |
| 2026-05-06 17:53 | 49.63570 | 6.23104 | 1242 ft | 13 kts | 60° |
| 2026-05-06 17:53 | 49.63620 | 6.23241 | 1242 ft | 18 kts | 59° |
| 2026-05-06 17:53 | 49.63669 | 6.23391 | 1242 ft | 12 kts | 80° |
| 2026-05-06 17:53 | 49.63631 | 6.23460 | 1242 ft | 7 kts | 148° |
| 2026-05-06 17:54 | 49.63561 | 6.23510 | 1242 ft | 13 kts | 179° |
| 2026-05-06 17:54 | 49.63505 | 6.23465 | 1242 ft | 7 kts | 233° |
| 2026-05-06 17:54 | 49.63358 | 6.23075 | 1242 ft | 80 kts | 237° |
| 2026-05-06 17:54 | 49.62963 | 6.22013 | 1242 ft | 147 kts | 239° |
| 2026-05-06 17:55 | 49.62417 | 6.20620 | 2074 ft | 139 kts | 239° |
| 2026-05-06 17:55 | 49.61861 | 6.19282 | 2760 ft | 161 kts | 240° |
| 2026-05-06 17:55 | 49.61258 | 6.17629 | 3330 ft | 193 kts | 243° |
| 2026-05-06 17:55 | 49.60539 | 6.15660 | 3807 ft | 231 kts | 243° |
| 2026-05-06 17:56 | 49.59668 | 6.13278 | 4104 ft | 278 kts | 243° |
| 2026-05-06 17:56 | 49.58630 | 6.10442 | 4151 ft | 327 kts | 242° |
| 2026-05-06 17:56 | 49.57440 | 6.07193 | 4129 ft | 363 kts | 242° |
| 2026-05-06 17:56 | 49.56316 | 6.03907 | 4061 ft | 337 kts | 248° |
| 2026-05-06 17:57 | 49.55833 | 6.00544 | 4001 ft | 308 kts | 269° |
| 2026-05-06 17:57 | 49.56184 | 5.97454 | 3991 ft | 279 kts | 292° |
| 2026-05-06 17:57 | 49.57229 | 5.95142 | 4073 ft | 250 kts | 319° |
| 2026-05-06 17:57 | 49.58756 | 5.94166 | 4080 ft | 237 kts | 354° |
| 2026-05-06 17:58 | 49.60382 | 5.94470 | 4281 ft | 244 kts | 13° |
| 2026-05-06 17:58 | 49.61990 | 5.95262 | 5163 ft | 238 kts | 19° |
| 2026-05-06 17:58 | 49.63528 | 5.96240 | 5928 ft | 239 kts | 20° |
| 2026-05-06 17:58 | 49.65076 | 5.97244 | 6612 ft | 244 kts | 24° |
| 2026-05-06 17:59 | 49.66603 | 5.98464 | 7274 ft | 250 kts | 28° |
| 2026-05-06 17:59 | 49.68093 | 5.99902 | 7949 ft | 255 kts | 33° |
| 2026-05-06 17:59 | 49.69532 | 6.01494 | 8603 ft | 261 kts | 36° |
| 2026-05-06 17:59 | 49.70977 | 6.03226 | 9281 ft | 266 kts | 37° |
| 2026-05-06 18:00 | 49.72438 | 6.05026 | 9982 ft | 270 kts | 38° |
| 2026-05-06 18:00 | 49.73915 | 6.06861 | 10682 ft | 274 kts | 38° |
| 2026-05-06 18:00 | 49.75412 | 6.08730 | 11373 ft | 279 kts | 38° |
| 2026-05-06 18:00 | 49.76932 | 6.10635 | 12059 ft | 283 kts | 38° |
| 2026-05-06 18:01 | 49.78473 | 6.12572 | 12755 ft | 287 kts | 38° |
| 2026-05-06 18:01 | 49.80014 | 6.14516 | 13440 ft | 291 kts | 38° |
| 2026-05-06 18:01 | 49.81595 | 6.16514 | 14130 ft | 295 kts | 38° |
| 2026-05-06 18:01 | 49.83201 | 6.18549 | 14828 ft | 299 kts | 38° |
| 2026-05-06 18:02 | 49.84822 | 6.20608 | 15516 ft | 303 kts | 39° |
| 2026-05-06 18:02 | 49.86468 | 6.22704 | 16194 ft | 307 kts | 39° |
| 2026-05-06 18:02 | 49.88107 | 6.24805 | 16851 ft | 311 kts | 39° |
| 2026-05-06 18:02 | 49.89819 | 6.26896 | 17496 ft | 315 kts | 34° |
| 2026-05-06 18:03 | 49.91703 | 6.28689 | 18134 ft | 319 kts | 27° |
| 2026-05-06 18:03 | 49.93715 | 6.30171 | 18787 ft | 322 kts | 23° |
| 2026-05-06 18:03 | 49.95782 | 6.31578 | 19408 ft | 325 kts | 23° |
| 2026-05-06 18:03 | 49.97858 | 6.33027 | 20046 ft | 329 kts | 23° |
| 2026-05-06 18:04 | 49.99934 | 6.34500 | 20641 ft | 332 kts | 23° |
| 2026-05-06 18:04 | 50.02044 | 6.36009 | 21252 ft | 335 kts | 23° |
| 2026-05-06 18:04 | 50.04174 | 6.37536 | 21834 ft | 339 kts | 23° |
| 2026-05-06 18:04 | 50.06311 | 6.39121 | 22409 ft | 342 kts | 28° |
| 2026-05-06 18:05 | 50.08217 | 6.41375 | 22942 ft | 347 kts | 46° |
| 2026-05-06 18:05 | 50.09681 | 6.44369 | 23520 ft | 349 kts | 59° |
| 2026-05-06 18:05 | 50.10860 | 6.47696 | 24039 ft | 352 kts | 64° |
| 2026-05-06 18:05 | 50.11928 | 6.51153 | 24583 ft | 354 kts | 66° |
| 2026-05-06 18:06 | 50.12956 | 6.54596 | 25139 ft | 355 kts | 66° |
| 2026-05-06 18:06 | 50.14013 | 6.58089 | 25665 ft | 357 kts | 66° |
| 2026-05-06 18:06 | 50.15085 | 6.61610 | 26174 ft | 359 kts | 66° |
| 2026-05-06 18:06 | 50.16159 | 6.65125 | 26781 ft | 357 kts | 66° |
| 2026-05-06 18:07 | 50.17229 | 6.68621 | 27383 ft | 356 kts | 66° |
| 2026-05-06 18:07 | 50.18292 | 6.72096 | 27958 ft | 354 kts | 66° |
| 2026-05-06 18:07 | 50.19352 | 6.75559 | 28508 ft | 353 kts | 66° |
| 2026-05-06 18:07 | 50.20412 | 6.79020 | 29018 ft | 352 kts | 66° |
| 2026-05-06 18:08 | 50.21361 | 6.82525 | 29521 ft | 349 kts | 76° |
| 2026-05-06 18:08 | 50.21835 | 6.86161 | 29984 ft | 344 kts | 88° |
| 2026-05-06 18:08 | 50.21901 | 6.89876 | 30451 ft | 340 kts | 95° |
| 2026-05-06 18:08 | 50.21801 | 6.93574 | 30777 ft | 343 kts | 98° |
| 2026-05-06 18:09 | 50.21399 | 7.01158 | 30835 ft | 353 kts | 99° |
| 2026-05-06 18:09 | 50.20977 | 7.08810 | 30824 ft | 358 kts | 99° |
| 2026-05-06 18:10 | 50.20547 | 7.16569 | 30818 ft | 357 kts | 99° |
| 2026-05-06 18:10 | 50.20120 | 7.24245 | 30817 ft | 357 kts | 99° |
| 2026-05-06 18:11 | 50.19607 | 7.31984 | 30817 ft | 354 kts | 105° |